EDT,Max TemperatureF,Mean TemperatureF,Min TemperatureF,Max Dew PointF,MeanDew PointF,Min DewpointF,Max Humidity, Mean Humidity, Min Humidity, Max Sea Level PressureIn, Mean Sea Level PressureIn, Min Sea Level PressureIn, Max VisibilityMiles, Mean VisibilityMiles, Min VisibilityMiles, Max Wind SpeedMPH, Mean Wind SpeedMPH, Max Gust SpeedMPH,PrecipitationIn, CloudCover, Events, WindDirDegrees
2013-4-1,53,46,38,45,37,20,93,68,42,30.09,29.95,29.87,10,8,2,16,6,22,0.04,6,Rain,262
2013-4-2,52,42,31,19,14,9,58,38,18,30.25,30.19,30.10,10,10,10,13,4,21,0.00,0,,321
2013-4-3,53,42,30,17,12,8,47,33,18,30.37,30.30,30.24,10,10,10,9,4,16,0.00,0,,41
2013-4-4,50,43,35,39,27,10,100,64,28,30.27,30.09,29.99,10,6,1,9,2,16,0.13,5,Rain,44
2013-4-5,63,51,39,40,35,25,100,62,23,30.10,30.02,29.97,10,5,0,14,3,20,0.02,4,Fog-Rain,307
2013-4-6,72,56,40,30,27,24,51,36,20,30.19,30.10,30.01,10,10,10,9,4,15,0.00,0,,86
2013-4-7,75,66,56,42,37,33,43,36,29,30.04,30.01,29.98,10,10,10,16,5,31,0.00,3,,215
2013-4-8,76,66,56,48,44,38,59,48,36,30.04,30.00,29.96,10,10,10,14,4,29,0.00,4,,206
2013-4-9,82,72,62,53,50,48,60,47,34,30.12,30.05,29.99,10,10,10,15,4,25,0.00,3,,209
2013-4-10,85,74,63,56,51,47,65,48,31,30.04,29.96,29.84,10,10,10,15,5,26,0.00,1,,218
2013-4-11,82,69,55,55,53,48,100,68,35,29.84,29.72,29.57,10,7,1,24,5,43,0.42,5,Rain,217
2013-4-12,61,53,44,55,45,33,93,65,37,29.93,29.73,29.51,10,9,2,17,7,26,0.10,6,Rain,255
2013-4-13,65,53,40,36,32,28,70,48,26,30.05,30.01,29.95,10,10,10,14,5,24,0.00,1,,269
2013-4-14,76,61,45,48,35,30,77,48,19,30.07,29.99,29.89,10,10,10,10,3,18,0.03,2,Rain,161
2013-4-15,76,64,52,52,50,48,89,65,41,30.04,29.99,29.94,10,10,10,9,2,15,0.01,5,Rain,174
2013-4-16,85,73,60,61,55,50,72,53,34,30.18,30.11,30.02,10,10,2,15,4,23,0.18,3,Rain-Thunderstorm,263
2013-4-17,73,67,60,59,58,55,97,79,61,30.30,30.18,30.03,10,6,0,12,4,18,0.79,5,Fog-Rain-Thunderstorm,175
2013-4-18,83,72,60,58,54,50,78,59,39,30.02,29.91,29.72,10,10,10,16,5,29,0.00,1,,182
2013-4-19,71,55,39,61,45,31,100,75,49,30.07,29.77,29.58,10,6,1,24,7,38,0.71,7,Rain,262
2013-4-20,57,46,34,32,27,23,82,56,30,30.35,30.20,30.09,10,10,10,14,5,23,0.00,0,,269
2013-4-21,63,49,35,30,26,25,64,46,27,30.47,30.38,30.32,10,10,10,9,3,16,0.00,0,,45
2013-4-22,72,59,45,36,32,25,58,42,25,30.34,30.26,30.15,10,10,10,8,2,12,0.00,1,,89
2013-4-23,74,62,49,43,38,30,50,41,31,30.17,30.09,29.97,10,10,10,9,4,15,0.00,0,,147
2013-4-24,67,55,42,57,47,39,89,70,51,30.24,30.01,29.87,10,8,1,20,6,29,0.23,6,Rain-Thunderstorm,250
2013-4-25,63,52,40,40,34,22,93,58,22,30.36,30.30,30.24,10,10,7,13,3,20,0.00,5,,311
2013-4-26,64,52,40,34,31,29,65,46,27,30.45,30.38,30.33,10,10,10,7,1,14,0.00,1,,50
2013-4-27,59,54,49,52,44,31,93,66,38,30.34,30.24,30.12,10,8,3,14,2,7,0.16,8,Rain,138
2013-4-28,63,58,53,53,52,50,93,79,65,30.12,30.01,29.91,10,6,1,10,4,21,0.80,7,Rain-Thunderstorm,153
2013-4-29,68,61,53,54,53,47,100,78,56,30.04,29.99,29.94,10,4,0,7,1,13,0.08,7,Fog-Rain,278
2013-4-30,80,66,51,54,50,48,93,64,35,30.06,30.03,29.98,10,10,10,8,2,12,0.00,1,,120